createdAt,value
2023-05-22T00:01:38.196Z,43.65
2023-05-22T00:06:46.502Z,43.69
2023-05-22T00:11:52.880Z,43.91
2023-05-22T00:17:00.435Z,44.13
2023-05-22T00:22:07.485Z,44.36
2023-05-22T00:27:13.279Z,44.55
2023-05-22T00:32:18.817Z,44.80
2023-05-22T00:37:25.728Z,45.12
2023-05-22T00:42:31.487Z,45.45
2023-05-22T00:47:37.281Z,45.65
2023-05-22T00:52:45.951Z,46.11
2023-05-22T00:57:52.571Z,46.51
2023-05-22T01:02:58.196Z,46.83
2023-05-22T01:08:06.211Z,47.14
2023-05-22T01:13:30.309Z,47.28
2023-05-22T01:18:55.247Z,47.54
2023-05-22T01:24:14.085Z,47.72
2023-05-22T01:29:46.659Z,47.83
2023-05-22T01:34:55.310Z,47.90
2023-05-22T01:40:01.617Z,47.86
2023-05-22T01:45:09.466Z,47.96
2023-05-22T01:50:16.542Z,48.00
2023-05-22T01:55:29.481Z,47.96
2023-05-22T02:00:37.722Z,48.10
2023-05-22T02:05:45.101Z,48.15
2023-05-22T02:10:53.012Z,48.19
2023-05-22T02:16:00.446Z,48.22
2023-05-22T02:26:14.094Z,48.53
2023-05-22T02:31:19.786Z,48.72
2023-05-22T02:36:26.383Z,48.90
2023-05-22T02:41:32.017Z,49.08
2023-05-22T02:46:37.714Z,49.24
2023-05-22T02:51:44.991Z,49.36
2023-05-22T02:56:50.864Z,49.51
2023-05-22T03:01:56.747Z,49.64
2023-05-22T03:07:03.012Z,49.87
2023-05-22T03:12:10.053Z,50.16
2023-05-22T03:17:15.676Z,50.34
2023-05-22T03:22:21.757Z,50.49
2023-05-22T03:27:27.626Z,50.50
2023-05-22T03:32:35.811Z,50.98
2023-05-22T03:37:42.960Z,51.09
2023-05-22T03:42:49.668Z,51.28
2023-05-22T03:47:55.956Z,51.49
2023-05-22T03:53:02.223Z,51.59
2023-05-22T03:58:08.944Z,51.74
2023-05-22T04:03:14.598Z,51.87
2023-05-22T04:08:22.180Z,51.98
2023-05-22T04:13:28.397Z,52.21
2023-05-22T04:18:34.025Z,52.15
2023-05-22T04:23:41.339Z,52.27
2023-05-22T04:28:47.412Z,52.85
2023-05-22T04:33:54.725Z,52.20
2023-05-22T04:39:00.598Z,52.23
2023-05-22T04:44:06.253Z,52.36
2023-05-22T04:49:11.832Z,52.32
2023-05-22T04:54:17.600Z,52.51
2023-05-22T04:59:23.469Z,52.62
2023-05-22T05:04:29.123Z,52.62
2023-05-22T05:09:35.197Z,52.88
2023-05-22T05:14:40.869Z,52.94
2023-05-22T05:19:46.541Z,52.79
2023-05-22T05:24:52.321Z,52.64
2023-05-22T05:29:58.096Z,52.72
2023-05-22T05:35:05.660Z,52.70
2023-05-22T05:40:25.449Z,52.61
2023-05-22T05:45:31.991Z,52.60
2023-05-22T05:50:38.088Z,52.56
2023-05-22T05:55:44.255Z,52.27
2023-05-22T06:00:50.626Z,52.03
2023-05-22T06:05:57.773Z,51.93
2023-05-22T06:11:14.148Z,51.69
2023-05-22T06:16:21.502Z,51.20
2023-05-22T06:21:27.515Z,51.39
2023-05-22T06:26:34.008Z,51.28
2023-05-22T06:31:39.903Z,50.80
2023-05-22T06:36:46.131Z,50.54
2023-05-22T06:41:53.067Z,50.39
2023-05-22T06:46:59.530Z,50.12
2023-05-22T06:52:05.582Z,49.85
2023-05-22T06:57:11.999Z,49.85
2023-05-22T07:02:17.771Z,49.64
2023-05-22T07:07:28.174Z,49.24
2023-05-22T07:12:34.863Z,49.11
2023-05-22T07:17:42.222Z,48.83
2023-05-22T07:22:48.456Z,48.68
2023-05-22T07:27:55.635Z,47.81
2023-05-22T07:33:01.914Z,47.63
2023-05-22T07:38:08.452Z,47.42
2023-05-22T07:43:15.914Z,46.87
2023-05-22T07:48:21.783Z,46.70
2023-05-22T07:53:28.080Z,45.88
2023-05-22T07:58:35.365Z,45.71
2023-05-22T08:03:41.618Z,45.16
2023-05-22T08:08:47.410Z,44.63
2023-05-22T08:13:52.979Z,44.38
2023-05-22T08:18:58.590Z,43.60
2023-05-22T08:24:04.433Z,43.43
2023-05-22T08:29:10.297Z,42.69
2023-05-22T08:34:15.953Z,42.47
2023-05-22T08:39:22.151Z,42.19
2023-05-22T08:44:28.113Z,41.67
2023-05-22T08:49:34.469Z,41.01
2023-05-22T08:54:44.277Z,40.85
2023-05-22T08:59:50.641Z,39.92
2023-05-22T09:04:57.429Z,39.20
2023-05-22T09:10:04.714Z,38.66
2023-05-22T09:15:12.373Z,38.08
2023-05-22T09:20:18.327Z,37.56
2023-05-22T09:25:23.946Z,37.33
2023-05-22T09:30:29.661Z,36.39
2023-05-22T09:35:39.677Z,35.99
2023-05-22T09:40:45.394Z,36.03
2023-05-22T09:45:52.884Z,35.66
2023-05-22T09:51:01.347Z,35.49
2023-05-22T09:56:10.194Z,35.33
2023-05-22T10:01:17.123Z,34.78
2023-05-22T10:06:24.369Z,34.52
2023-05-22T10:11:32.921Z,34.26
2023-05-22T10:16:38.761Z,33.76
2023-05-22T10:21:44.922Z,33.95
2023-05-22T10:26:51.526Z,33.84
2023-05-22T10:32:09.104Z,33.54
2023-05-22T10:37:58.805Z,33.38
2023-05-22T10:43:05.598Z,32.88
2023-05-22T10:48:13.234Z,32.59
2023-05-22T10:53:29.191Z,32.55
2023-05-22T10:58:39.455Z,32.01
2023-05-22T11:04:02.578Z,31.83
2023-05-22T11:09:46.643Z,31.58
2023-05-22T11:15:01.332Z,31.76
2023-05-22T11:20:10.438Z,31.51
2023-05-22T11:25:20.760Z,31.71
2023-05-22T11:30:31.360Z,31.74
2023-05-22T11:35:38.840Z,31.43
2023-05-22T11:40:44.510Z,31.53
2023-05-22T11:45:50.169Z,30.99
2023-05-22T11:50:55.840Z,30.78
2023-05-22T11:56:06.956Z,30.82
2023-05-22T12:01:12.554Z,30.95
2023-05-22T12:06:19.417Z,30.31
2023-05-22T12:11:28.130Z,29.96
2023-05-22T12:16:37.738Z,29.80
2023-05-22T12:21:45.107Z,29.26
2023-05-22T12:26:57.509Z,29.58
2023-05-22T12:32:08.768Z,28.70
2023-05-22T12:37:26.388Z,28.92
2023-05-22T12:42:31.925Z,28.58
2023-05-22T12:47:37.507Z,28.87
2023-05-22T12:52:43.282Z,28.85
2023-05-22T12:57:49.038Z,28.44
2023-05-22T13:02:54.881Z,27.33
2023-05-22T13:08:00.566Z,28.49
2023-05-22T13:13:06.340Z,28.09
2023-05-22T13:18:13.161Z,28.37
2023-05-22T13:23:18.717Z,27.54
2023-05-22T13:28:24.572Z,27.69
2023-05-22T13:33:30.250Z,27.73
2023-05-22T13:38:36.110Z,28.11
2023-05-22T13:43:41.799Z,27.84
2023-05-22T13:48:47.344Z,27.60
2023-05-22T13:53:54.337Z,27.62
2023-05-22T13:59:00.456Z,27.78
2023-05-22T14:04:06.596Z,27.82
2023-05-22T14:09:12.396Z,27.70
2023-05-22T14:14:20.253Z,27.18
2023-05-22T14:19:25.966Z,27.22
2023-05-22T14:24:31.828Z,27.38
2023-05-22T14:29:37.657Z,27.67
2023-05-22T14:34:43.154Z,27.41
2023-05-22T14:39:49.150Z,27.40
2023-05-22T14:44:54.801Z,27.88
2023-05-22T14:50:14.721Z,27.40
2023-05-22T14:55:08.096Z,27.23
2023-05-22T15:00:14.422Z,26.78
2023-05-22T15:05:20.184Z,25.43
2023-05-22T15:10:26.953Z,26.49
2023-05-22T15:15:32.701Z,26.11
2023-05-22T15:20:38.482Z,26.13
2023-05-22T15:25:45.053Z,26.11
2023-05-22T15:30:50.924Z,26.33
2023-05-22T15:35:56.545Z,26.70
2023-05-22T15:41:02.177Z,27.16
2023-05-22T15:46:08.701Z,27.54
2023-05-22T15:51:14.615Z,25.31
2023-05-22T15:56:20.191Z,25.58
2023-05-22T16:01:26.079Z,24.89
2023-05-22T16:06:32.843Z,24.63
2023-05-22T16:11:38.413Z,24.62
2023-05-22T16:16:44.441Z,24.72
2023-05-22T16:21:50.271Z,24.73
2023-05-22T16:26:57.107Z,24.95
2023-05-22T16:32:04.071Z,25.18
2023-05-22T16:37:09.978Z,25.72
2023-05-22T16:42:17.761Z,25.82
2023-05-22T16:47:23.826Z,26.01
2023-05-22T16:52:29.723Z,25.75
2023-05-22T16:57:35.410Z,25.56
2023-05-22T17:02:41.558Z,25.98
2023-05-22T17:07:47.228Z,25.58
2023-05-22T17:12:52.806Z,24.08
2023-05-22T17:17:58.485Z,24.44
2023-05-22T17:23:04.207Z,24.56
2023-05-22T17:28:10.360Z,25.01
2023-05-22T17:33:16.128Z,25.03
2023-05-22T17:38:22.157Z,25.39
2023-05-22T17:43:28.204Z,26.05
2023-05-22T17:48:34.794Z,26.64
2023-05-22T17:53:40.564Z,26.81
2023-05-22T17:58:46.127Z,26.38
2023-05-22T18:03:51.960Z,26.44
2023-05-22T18:08:57.659Z,26.82
2023-05-22T18:14:03.441Z,26.85
2023-05-22T18:19:09.038Z,27.13
2023-05-22T18:24:15.998Z,27.68
2023-05-22T18:29:21.655Z,28.17
2023-05-22T18:34:27.334Z,29.11
2023-05-22T18:39:32.889Z,29.68
2023-05-22T18:44:38.458Z,30.27
2023-05-22T18:49:44.253Z,30.91
2023-05-22T18:54:49.894Z,31.45
2023-05-22T18:59:55.672Z,32.02
2023-05-22T19:05:01.474Z,32.48
2023-05-22T19:10:08.483Z,33.04
2023-05-22T19:15:14.377Z,33.60
2023-05-22T19:20:20.228Z,34.06
2023-05-22T19:25:26.589Z,34.54
2023-05-22T19:30:32.248Z,34.94
2023-05-22T19:35:38.765Z,35.20
2023-05-22T19:40:44.701Z,35.49
2023-05-22T19:45:50.763Z,35.63
2023-05-22T19:50:56.646Z,35.82
2023-05-22T19:56:03.051Z,35.86
2023-05-22T20:01:08.699Z,36.01
2023-05-22T20:06:14.354Z,36.13
2023-05-22T20:11:20.051Z,36.24
2023-05-22T20:16:29.257Z,36.39
2023-05-22T20:21:34.456Z,36.50
2023-05-22T20:26:40.132Z,36.67
2023-05-22T20:31:46.917Z,36.78
2023-05-22T20:36:53.270Z,36.90
2023-05-22T20:42:00.575Z,36.99
2023-05-22T20:47:06.996Z,37.12
2023-05-22T20:52:13.666Z,37.20
2023-05-22T20:57:19.317Z,37.29
2023-05-22T21:02:25.126Z,37.42
2023-05-22T21:07:30.768Z,37.64
2023-05-22T21:12:36.537Z,37.79
2023-05-22T21:17:43.157Z,37.99
2023-05-22T21:22:49.918Z,38.18
2023-05-22T21:27:55.937Z,38.29
2023-05-22T21:33:01.589Z,38.34
2023-05-22T21:38:07.308Z,38.41
2023-05-22T21:43:12.902Z,38.43
2023-05-22T21:48:18.555Z,38.48
2023-05-22T21:53:24.236Z,38.55
2023-05-22T21:58:30.206Z,38.66
2023-05-22T22:03:35.877Z,38.75
2023-05-22T22:08:41.633Z,38.82
2023-05-22T22:13:47.189Z,38.94
2023-05-22T22:18:52.862Z,38.92
2023-05-22T22:23:58.539Z,38.86
2023-05-22T22:29:05.331Z,38.71
2023-05-22T22:34:10.885Z,38.63
2023-05-22T22:39:16.980Z,38.58
2023-05-22T22:44:22.527Z,38.57
2023-05-22T22:49:28.371Z,38.50
2023-05-22T22:54:34.094Z,38.53
2023-05-22T22:59:39.863Z,38.51
2023-05-22T23:04:45.688Z,38.50
2023-05-22T23:09:51.323Z,38.51
2023-05-22T23:14:57.052Z,38.47
2023-05-22T23:20:02.721Z,38.58
2023-05-22T23:25:09.362Z,38.65
2023-05-22T23:30:15.125Z,38.70
2023-05-22T23:35:20.744Z,38.83
2023-05-22T23:40:26.300Z,39.03
2023-05-22T23:45:40.296Z,39.16
2023-05-22T23:50:46.240Z,39.21
2023-05-22T23:55:51.898Z,39.26
